Time;durP1;ratioP1;P1;durP2;ratioP2;P2;SDS_P1;SDS_P2;PMS_P1;PMS_P2;Temp;Humidity;BMP_temperature;BMP_pressure;BME280_temperature;BME280_humidity;BME280_pressure;Samples;Min_cycle;Max_cycle;Signal;HPM_P1;HPM_P2
2022/06/07 00:00:36;;;;;;;3.67;1.10;;;21.80;62.40;;;;;;5060524;28;20044;-48
2022/06/07 00:03:02;;;;;;;5.75;1.92;;;21.80;62.40;;;;;;5092824;28;20136;-48
2022/06/07 00:05:29;;;;;;;8.40;1.83;;;21.80;62.60;;;;;;5084659;28;20788;-47
2022/06/07 00:07:55;;;;;;;8.10;2.30;;;21.90;62.90;;;;;;5073207;28;20045;-49
2022/06/07 00:10:22;;;;;;;7.97;1.90;;;21.90;63.00;;;;;;5087016;28;20063;-47
2022/06/07 00:12:48;;;;;;;;;;;21.90;63.20;;;;;;5068444;28;20037;-45
2022/06/07 00:15:15;;;;;;;2.97;1.10;;;21.90;63.20;;;;;;5079527;28;19954;-48
2022/06/07 00:17:41;;;;;;;3.60;1.33;;;21.90;63.40;;;;;;5063562;28;20122;-51
2022/06/07 00:20:09;;;;;;;3.22;1.30;;;21.90;63.30;;;;;;5080829;28;20070;-49
2022/06/07 00:22:35;;;;;;;1.63;1.00;;;22.00;63.40;;;;;;5081886;28;20037;-48
2022/06/07 00:25:03;;;;;;;4.78;1.10;;;22.00;63.40;;;;;;5082238;28;20028;-48
2022/06/07 00:27:29;;;;;;;2.13;0.98;;;22.00;63.30;;;;;;5081311;28;20467;-47
2022/06/07 00:29:55;;;;;;;2.30;1.10;;;22.00;63.10;;;;;;5081413;28;20019;-46
2022/06/07 00:32:22;;;;;;;1.80;0.85;;;22.00;63.10;;;;;;5074085;28;20294;-47
2022/06/07 00:34:48;;;;;;;2.00;0.80;;;22.00;63.00;;;;;;5060563;28;20088;-48
2022/06/07 00:37:14;;;;;;;1.65;0.70;;;22.10;63.10;;;;;;5061541;28;20039;-47
2022/06/07 00:39:40;;;;;;;1.10;0.70;;;22.10;62.90;;;;;;5075979;28;20029;-49
2022/06/07 00:42:07;;;;;;;1.58;0.90;;;22.10;62.90;;;;;;5081556;28;20032;-47
2022/06/07 00:44:36;;;;;;;1.15;0.85;;;22.10;62.70;;;;;;5063597;28;20051;-46
2022/06/07 00:47:14;;;;;;;1.33;0.88;;;22.10;62.60;;;;;;5062975;28;20739;-48
2022/06/07 00:50:15;;;;;;;1.02;0.70;;;22.10;62.50;;;;;;5081335;28;20055;-47
2022/06/07 00:52:41;;;;;;;1.70;0.85;;;22.10;62.40;;;;;;5049766;28;20028;-47
2022/06/07 00:55:07;;;;;;;1.27;0.70;;;22.20;62.30;;;;;;5081662;28;20026;-48
2022/06/07 00:57:35;;;;;;;0.75;0.65;;;22.10;62.10;;;;;;5084778;28;20047;-47
2022/06/07 01:00:08;;;;;;;1.38;0.82;;;22.20;62.10;;;;;;5084900;28;20032;-48
2022/06/07 01:02:34;;;;;;;1.38;0.80;;;22.20;62.00;;;;;;5075012;28;20025;-48
2022/06/07 01:05:01;;;;;;;1.30;0.73;;;22.20;61.90;;;;;;5065888;28;20039;-50
2022/06/07 01:12:58;;;;;;;0.93;0.80;;;22.20;61.80;;;;;;5084878;28;20039;-48
2022/06/07 01:15:25;;;;;;;0.93;0.60;;;22.20;61.80;;;;;;5066577;28;20035;-50
2022/06/07 01:17:51;;;;;;;1.42;0.80;;;22.20;61.70;;;;;;5066595;28;20092;-47
2022/06/07 01:20:18;;;;;;;1.00;0.70;;;22.30;61.80;;;;;;5084570;28;20120;-49
2022/06/07 01:22:46;;;;;;;1.10;0.70;;;22.30;61.90;;;;;;5084789;28;20052;-49
2022/06/07 01:25:12;;;;;;;;;;;22.30;61.90;;;;;;5082641;28;20039;-50
2022/06/07 01:27:38;;;;;;;1.33;0.73;;;22.30;61.80;;;;;;5084457;28;20022;-50
2022/06/07 01:30:04;;;;;;;0.80;0.50;;;22.30;61.80;;;;;;5084216;28;20028;-47
2022/06/07 01:32:33;;;;;;;1.25;0.70;;;22.30;61.80;;;;;;5056919;28;20032;-49
2022/06/07 01:35:00;;;;;;;1.10;0.70;;;22.30;61.70;;;;;;5064673;28;20029;-49
2022/06/07 01:37:26;;;;;;;;;;;22.30;62.40;;;;;;5065851;28;20036;-52
2022/06/07 01:42:37;;;;;;;1.02;0.80;;;22.30;61.60;;;;;;5084801;28;20039;-48
2022/06/07 01:45:03;;;;;;;2.58;0.70;;;22.30;61.70;;;;;;5084522;28;20048;-48
2022/06/07 01:47:31;;;;;;;1.57;0.90;;;22.30;61.70;;;;;;5084035;28;20032;-46
2022/06/07 01:49:58;;;;;;;0.90;0.80;;;22.30;61.70;;;;;;5084232;28;20296;-48
2022/06/07 01:52:27;;;;;;;1.20;0.83;;;22.30;61.70;;;;;;5084558;28;20031;-46
2022/06/07 01:54:53;;;;;;;0.70;0.60;;;22.40;61.70;;;;;;5066535;28;20020;-48
2022/06/07 01:57:20;;;;;;;1.20;0.75;;;22.40;61.70;;;;;;5084023;28;20074;-48
2022/06/07 01:59:46;;;;;;;0.80;0.60;;;22.40;61.70;;;;;;5066015;28;20036;-48
2022/06/07 02:02:13;;;;;;;1.25;0.60;;;22.40;61.70;;;;;;5083884;28;20028;-48
2022/06/07 02:04:40;;;;;;;0.95;0.60;;;22.40;61.60;;;;;;5084385;28;20385;-46
2022/06/07 02:07:06;;;;;;;1.27;0.80;;;22.40;61.70;;;;;;5069640;28;20025;-50
2022/06/07 02:09:32;;;;;;;1.53;0.80;;;22.40;61.50;;;;;;5084187;28;20033;-47
2022/06/07 02:11:59;;;;;;;0.95;0.65;;;22.40;61.30;;;;;;5065893;28;20283;-47
2022/06/07 02:14:27;;;;;;;0.60;0.60;;;22.40;60.60;;;;;;5083965;28;20366;-46
2022/06/07 02:16:53;;;;;;;1.20;0.80;;;22.40;59.80;;;;;;5083645;28;20028;-49
2022/06/07 02:19:19;;;;;;;1.58;0.73;;;22.40;59.50;;;;;;5083449;28;20032;-48
2022/06/07 02:21:45;;;;;;;1.52;0.73;;;22.40;59.60;;;;;;5083152;28;20041;-49
2022/06/07 02:24:11;;;;;;;1.27;0.70;;;22.40;60.00;;;;;;5083498;28;20035;-52
2022/06/07 02:27:06;;;;;;;1.08;0.70;;;22.40;60.50;;;;;;5083715;28;20020;-53
2022/06/07 02:29:35;;;;;;;1.05;0.75;;;22.40;60.50;;;;;;5083222;28;20072;-49
2022/06/07 02:32:13;;;;;;;1.83;0.85;;;22.40;60.60;;;;;;5059317;28;20036;-52
2022/06/07 02:34:41;;;;;;;1.33;0.80;;;22.40;60.70;;;;;;5062242;28;20037;-54
2022/06/07 02:37:07;;;;;;;0.70;0.70;;;22.40;60.60;;;;;;5063474;28;20029;-53
2022/06/07 02:39:34;;;;;;;1.85;0.80;;;22.40;60.70;;;;;;5062144;28;20051;-52
2022/06/07 02:42:01;;;;;;;1.42;1.20;;;22.40;60.90;;;;;;5066394;28;20047;-50
2022/06/07 02:44:27;;;;;;;1.00;0.80;;;22.40;60.80;;;;;;5049193;28;20028;-52
2022/06/07 02:46:53;;;;;;;2.15;1.00;;;22.40;61.00;;;;;;5083052;28;20092;-49
2022/06/07 02:49:20;;;;;;;0.90;0.73;;;22.50;61.00;;;;;;5065162;28;20080;-52
2022/06/07 02:51:46;;;;;;;1.98;0.80;;;22.40;61.00;;;;;;5083146;28;20056;-52
2022/06/07 02:54:12;;;;;;;0.80;0.70;;;22.40;61.10;;;;;;5082595;28;20029;-50
2022/06/07 02:56:38;;;;;;;2.45;0.80;;;22.40;61.10;;;;;;5094907;28;20058;-52
2022/06/07 02:59:04;;;;;;;0.93;0.80;;;22.50;61.10;;;;;;5089231;28;20050;-52
2022/06/07 03:01:30;;;;;;;1.08;0.73;;;22.50;61.10;;;;;;5091672;28;20028;-52
2022/06/07 03:03:58;;;;;;;0.80;0.75;;;22.50;61.10;;;;;;5063940;28;20032;-53
2022/06/07 03:06:24;;;;;;;1.63;1.10;;;22.50;61.10;;;;;;5098681;28;20085;-51
2022/06/07 03:08:50;;;;;;;1.17;0.70;;;22.50;61.00;;;;;;5103003;28;20042;-51
2022/06/07 03:11:17;;;;;;;1.38;0.80;;;22.50;61.00;;;;;;5090737;28;20303;-51
2022/06/07 03:13:43;;;;;;;1.30;0.90;;;22.50;61.00;;;;;;5083066;28;20029;-52
2022/06/07 03:16:09;;;;;;;1.25;0.70;;;22.50;61.00;;;;;;5082709;28;20028;-50
2022/06/07 03:18:35;;;;;;;2.08;0.70;;;22.50;61.00;;;;;;5097056;28;20716;-48
2022/06/07 03:21:02;;;;;;;1.23;0.80;;;22.50;60.90;;;;;;5097467;28;20035;-49
2022/06/07 03:23:28;;;;;;;0.77;0.60;;;22.50;60.90;;;;;;5081440;28;20029;-49
2022/06/07 03:26:05;;;;;;;0.50;0.50;;;22.50;60.80;;;;;;5069005;28;20094;-51
2022/06/07 03:28:32;;;;;;;0.82;0.68;;;22.50;60.80;;;;;;5081405;28;20068;-50
2022/06/07 03:31:13;;;;;;;0.70;0.60;;;22.50;60.80;;;;;;5093258;28;20036;-52
2022/06/07 03:33:42;;;;;;;2.00;1.00;;;22.50;60.70;;;;;;5077381;28;20036;-49
2022/06/07 03:36:10;;;;;;;0.95;0.85;;;22.50;60.80;;;;;;5082964;28;20055;-50
2022/06/07 03:38:37;;;;;;;0.80;0.60;;;22.50;60.90;;;;;;5101142;28;20027;-53
2022/06/07 03:41:03;;;;;;;0.98;0.82;;;22.50;60.80;;;;;;5086980;28;20017;-53
2022/06/07 03:43:29;;;;;;;1.25;0.80;;;22.50;60.80;;;;;;5101567;28;20040;-50
2022/06/07 03:45:55;;;;;;;1.23;0.75;;;22.50;60.70;;;;;;5089306;28;20078;-51
2022/06/07 03:48:42;;;;;;;1.90;0.90;;;22.50;60.70;;;;;;5072478;28;20805;-54
2022/06/07 03:51:09;;;;;;;1.65;0.82;;;22.50;60.70;;;;;;4993982;28;20038;-52
2022/06/07 03:53:35;;;;;;;2.30;0.80;;;22.50;60.70;;;;;;4995821;28;20038;-51
2022/06/07 03:56:01;;;;;;;1.42;0.90;;;22.60;60.70;;;;;;4980403;28;20023;-53
2022/06/07 03:58:28;;;;;;;0.82;0.80;;;22.50;60.60;;;;;;4983442;28;20023;-50
2022/06/07 04:00:57;;;;;;;1.10;0.75;;;22.50;60.60;;;;;;4979644;28;20034;-51
2022/06/07 04:03:24;;;;;;;1.20;0.90;;;22.50;60.60;;;;;;4980435;28;20035;-52
2022/06/07 04:05:50;;;;;;;0.98;0.70;;;22.50;60.60;;;;;;4981095;28;20129;-54
2022/06/07 04:08:16;;;;;;;1.40;0.90;;;22.50;60.50;;;;;;4997382;28;20089;-54
2022/06/07 04:10:51;;;;;;;1.15;0.82;;;22.50;60.40;;;;;;4985718;28;20090;-53
2022/06/07 04:13:18;;;;;;;0.85;0.70;;;22.50;60.40;;;;;;4980535;28;20037;-52
2022/06/07 04:15:44;;;;;;;0.77;0.73;;;22.50;60.30;;;;;;4979896;28;20157;-50
2022/06/07 04:18:11;;;;;;;0.80;0.75;;;22.50;60.40;;;;;;4993757;28;20038;-51
2022/06/07 04:20:37;;;;;;;1.70;0.85;;;22.50;60.40;;;;;;4985600;28;20030;-51
2022/06/07 04:23:04;;;;;;;0.68;0.65;;;22.50;60.30;;;;;;4978813;28;20043;-51
2022/06/07 04:25:30;;;;;;;0.70;0.70;;;22.50;60.20;;;;;;4991498;28;20101;-51
2022/06/07 04:27:56;;;;;;;2.00;0.90;;;22.50;60.30;;;;;;5031539;28;20067;-50
2022/06/07 04:30:22;;;;;;;1.75;0.80;;;22.50;60.20;;;;;;5095243;28;20052;-49
2022/06/07 04:32:49;;;;;;;0.88;0.70;;;22.50;60.30;;;;;;5087699;28;20020;-51
2022/06/07 04:35:17;;;;;;;1.10;0.88;;;22.50;60.30;;;;;;5084966;28;20101;-51
2022/06/07 04:37:45;;;;;;;0.85;0.85;;;22.50;60.50;;;;;;5093238;28;20040;-50
2022/06/07 04:40:12;;;;;;;1.00;0.90;;;22.50;60.40;;;;;;5088816;28;20020;-51
2022/06/07 04:42:38;;;;;;;0.85;0.77;;;22.50;60.50;;;;;;5098854;28;20135;-51
2022/06/07 04:45:06;;;;;;;0.85;0.85;;;22.50;60.40;;;;;;5096898;28;20032;-50
2022/06/07 04:47:33;;;;;;;0.90;0.80;;;22.50;60.40;;;;;;5095600;28;20043;-50
2022/06/07 04:49:59;;;;;;;1.00;0.90;;;22.50;60.40;;;;;;5094023;28;20092;-47
2022/06/07 04:52:25;;;;;;;1.90;1.00;;;22.50;60.40;;;;;;5083571;28;20600;-48
2022/06/07 04:54:51;;;;;;;0.80;0.80;;;22.50;60.30;;;;;;5103961;28;20077;-50
2022/06/07 04:57:18;;;;;;;1.42;0.73;;;22.50;60.40;;;;;;5101616;28;20024;-52
2022/06/07 04:59:44;;;;;;;1.15;0.80;;;22.50;60.30;;;;;;5091986;28;20032;-51
2022/06/07 05:02:10;;;;;;;1.25;1.00;;;22.50;60.30;;;;;;5085474;28;20074;-52
2022/06/07 05:04:37;;;;;;;2.88;0.90;;;22.50;60.30;;;;;;5085456;28;20096;-49
2022/06/07 05:07:03;;;;;;;0.95;0.80;;;22.50;60.30;;;;;;5085225;28;20048;-48
2022/06/07 05:09:29;;;;;;;0.70;0.70;;;22.50;60.30;;;;;;5090122;28;20032;-50
2022/06/07 05:11:55;;;;;;;1.17;0.80;;;22.50;60.30;;;;;;5087502;28;20025;-49
2022/06/07 05:14:21;;;;;;;0.80;0.80;;;22.50;60.10;;;;;;5085514;28;20331;-50
2022/06/07 05:16:48;;;;;;;1.10;1.00;;;22.50;60.10;;;;;;5085280;28;20051;-52
2022/06/07 05:19:14;;;;;;;0.70;0.70;;;22.50;60.10;;;;;;5085195;28;20074;-53
2022/06/07 05:21:40;;;;;;;1.38;0.93;;;22.50;60.20;;;;;;5084968;28;20282;-55
2022/06/07 05:24:07;;;;;;;0.80;0.77;;;22.50;60.20;;;;;;5087965;28;20031;-53
2022/06/07 05:26:37;;;;;;;0.90;0.82;;;22.50;60.30;;;;;;5086583;28;20142;-52
2022/06/07 05:29:09;;;;;;;1.23;0.88;;;22.50;60.30;;;;;;5066854;28;20040;-52
2022/06/07 05:31:35;;;;;;;1.00;0.90;;;22.50;60.30;;;;;;5065088;28;20039;-50
2022/06/07 05:34:01;;;;;;;1.67;1.02;;;22.50;60.40;;;;;;5065188;28;20103;-52
2022/06/07 05:36:28;;;;;;;1.00;0.90;;;22.50;60.40;;;;;;5064917;28;20021;-53
2022/06/07 05:38:55;;;;;;;1.02;0.93;;;22.50;60.30;;;;;;5100207;28;20024;-49
2022/06/07 05:41:25;;;;;;;0.80;0.75;;;22.50;60.30;;;;;;5105113;28;20032;-53
2022/06/07 05:43:51;;;;;;;1.08;0.80;;;22.50;60.30;;;;;;5105347;28;20027;-53
2022/06/07 05:46:18;;;;;;;2.15;0.80;;;22.50;60.30;;;;;;5097855;28;20017;-54
2022/06/07 05:48:44;;;;;;;1.45;1.00;;;22.50;60.30;;;;;;5066926;28;20066;-51
2022/06/07 05:51:10;;;;;;;3.33;0.85;;;22.50;60.30;;;;;;5069008;28;20487;-50
2022/06/07 05:53:37;;;;;;;1.13;1.02;;;22.50;60.20;;;;;;5101260;28;20042;-54
2022/06/07 05:56:07;;;;;;;1.50;1.02;;;22.50;60.20;;;;;;5090329;28;20116;-55
2022/06/07 05:58:33;;;;;;;0.80;0.80;;;22.50;60.30;;;;;;5067230;28;20032;-55
2022/06/07 06:01:00;;;;;;;1.05;0.95;;;22.50;60.30;;;;;;5081795;28;20024;-50
2022/06/07 06:03:26;;;;;;;1.05;1.00;;;22.50;60.30;;;;;;5089926;28;20032;-55
2022/06/07 06:05:52;;;;;;;2.28;1.15;;;22.50;60.40;;;;;;5092302;28;20036;-54
2022/06/07 06:11:13;;;;;;;1.13;0.80;;;22.50;60.30;;;;;;5070201;28;20083;-48
2022/06/07 06:13:39;;;;;;;1.20;1.10;;;22.50;60.30;;;;;;5091137;28;20034;-54
2022/06/07 06:16:10;;;;;;;1.08;0.80;;;22.50;60.30;;;;;;5082485;28;20072;-48
2022/06/07 06:18:37;;;;;;;0.90;0.80;;;22.50;60.20;;;;;;5077659;28;20667;-53
2022/06/07 06:21:06;;;;;;;0.98;0.88;;;22.50;60.30;;;;;;5090601;28;20056;-54
2022/06/07 06:23:32;;;;;;;1.48;0.80;;;22.50;60.30;;;;;;5077084;28;20773;-50
2022/06/07 06:25:58;;;;;;;2.25;1.10;;;22.50;60.30;;;;;;5068894;28;20081;-48
2022/06/07 06:28:25;;;;;;;1.17;0.70;;;22.50;60.40;;;;;;5080318;28;20046;-51
2022/06/07 06:30:52;;;;;;;;;;;22.50;60.30;;;;;;5095129;28;20036;-49
2022/06/07 06:33:18;;;;;;;1.20;0.90;;;22.50;60.20;;;;;;5096150;28;19964;-50
2022/06/07 06:35:51;;;;;;;1.40;0.97;;;22.40;60.30;;;;;;5083080;28;20095;-50
2022/06/07 06:38:18;;;;;;;0.70;0.70;;;22.40;60.30;;;;;;5101367;28;20295;-51
2022/06/07 06:40:45;;;;;;;0.93;0.93;;;22.40;60.30;;;;;;5067323;28;20045;-53
2022/06/07 06:43:14;;;;;;;;;;;22.50;60.50;;;;;;5084497;28;20139;-50
2022/06/07 06:45:40;;;;;;;0.80;0.80;;;22.40;60.30;;;;;;5093173;28;19919;-54
2022/06/07 06:48:07;;;;;;;0.80;0.80;;;22.40;60.30;;;;;;5080354;28;20054;-49
2022/06/07 06:50:34;;;;;;;0.80;0.80;;;22.40;60.30;;;;;;5078414;28;20310;-51
2022/06/07 06:53:00;;;;;;;0.82;0.82;;;22.40;60.30;;;;;;5094769;28;20568;-51
2022/06/07 06:55:26;;;;;;;0.90;0.90;;;22.40;60.30;;;;;;5104079;28;20024;-47
2022/06/07 06:57:52;;;;;;;1.00;0.90;;;22.40;60.40;;;;;;5085007;28;20024;-47
2022/06/07 07:00:19;;;;;;;0.82;0.80;;;22.40;60.40;;;;;;5083373;28;20021;-48
2022/06/07 07:02:45;;;;;;;1.08;1.00;;;22.40;60.50;;;;;;5083522;28;20040;-50
2022/06/07 07:05:12;;;;;;;1.25;1.00;;;22.40;60.50;;;;;;5083678;28;20084;-50
2022/06/07 07:07:38;;;;;;;;;;;22.40;60.60;;;;;;5083855;28;20608;-47
2022/06/07 07:10:05;;;;;;;1.08;0.90;;;22.40;60.50;;;;;;5081081;28;19904;-50
2022/06/07 07:12:32;;;;;;;1.08;0.90;;;22.40;60.70;;;;;;5063032;28;20036;-49
2022/06/07 07:14:59;;;;;;;1.30;0.98;;;22.40;60.60;;;;;;5063561;28;20107;-48
2022/06/07 07:17:25;;;;;;;1.13;1.02;;;22.40;60.60;;;;;;5077995;28;20105;-50
2022/06/07 07:19:51;;;;;;;1.20;1.10;;;22.40;60.70;;;;;;5086916;28;20028;-51
2022/06/07 07:22:18;;;;;;;1.10;1.00;;;22.40;60.50;;;;;;5096678;28;20059;-48
2022/06/07 07:24:44;;;;;;;1.02;0.93;;;22.40;60.50;;;;;;5089062;28;20021;-52
2022/06/07 07:27:11;;;;;;;1.30;0.90;;;22.40;60.50;;;;;;5093864;28;20651;-50
2022/06/07 07:29:37;;;;;;;0.90;0.90;;;22.40;60.50;;;;;;5086779;28;20401;-52
2022/06/07 07:32:04;;;;;;;1.10;0.70;;;22.40;60.50;;;;;;5074106;28;20040;-53
2022/06/07 07:34:30;;;;;;;1.17;1.08;;;22.40;60.50;;;;;;5078275;28;20339;-55
2022/06/07 07:36:57;;;;;;;2.10;0.98;;;22.40;60.60;;;;;;5095726;28;20043;-51
2022/06/07 07:39:24;;;;;;;1.00;0.90;;;22.40;60.50;;;;;;5096567;28;20077;-50
2022/06/07 07:41:51;;;;;;;1.08;0.98;;;22.40;60.50;;;;;;5098292;28;20124;-53
2022/06/07 07:44:17;;;;;;;0.80;0.80;;;22.40;60.50;;;;;;5061219;28;20040;-52
2022/06/07 07:46:44;;;;;;;0.80;0.80;;;22.40;60.40;;;;;;5100356;28;20025;-52
2022/06/07 07:49:12;;;;;;;1.30;0.70;;;22.40;60.50;;;;;;5089855;28;20430;-51
2022/06/07 07:51:39;;;;;;;0.80;0.80;;;22.40;60.50;;;;;;5082700;28;20085;-50
2022/06/07 07:54:08;;;;;;;1.30;0.90;;;22.40;60.50;;;;;;5064788;28;20016;-48
2022/06/07 07:56:35;;;;;;;0.88;0.85;;;22.40;60.80;;;;;;5093267;28;20039;-51
2022/06/07 07:59:01;;;;;;;1.05;0.70;;;22.30;60.80;;;;;;5082828;28;20101;-49
2022/06/07 08:01:28;;;;;;;1.00;0.90;;;22.30;60.70;;;;;;5064146;28;20050;-48
2022/06/07 08:03:57;;;;;;;0.90;0.63;;;22.40;60.00;;;;;;5082953;28;20020;-49
2022/06/07 08:06:23;;;;;;;0.80;0.80;;;22.40;59.30;;;;;;5081710;28;20041;-53
2022/06/07 08:08:52;;;;;;;1.07;0.70;;;22.40;58.80;;;;;;5096636;28;20431;-47
2022/06/07 08:11:20;;;;;;;2.13;0.85;;;22.30;58.40;;;;;;5089472;28;20021;-42
2022/06/07 08:13:45;;;;;;;;;;;22.30;58.30;;;;;;5083163;28;20038;-49
2022/06/07 08:16:12;;;;;;;2.58;1.20;;;22.30;58.50;;;;;;5078793;28;19948;-48
2022/06/07 08:18:38;;;;;;;4.93;1.27;;;22.20;59.20;;;;;;5087246;28;20035;-50
2022/06/07 08:21:08;;;;;;;2.05;1.10;;;22.20;58.30;;;;;;5082449;28;20122;-49
2022/06/07 08:23:34;;;;;;;7.18;1.00;;;22.20;58.20;;;;;;5070211;28;20044;-49
2022/06/07 08:26:01;;;;;;;2.00;1.13;;;22.10;58.40;;;;;;5082392;28;20032;-48
2022/06/07 08:28:27;;;;;;;1.75;1.13;;;22.10;58.70;;;;;;5082396;28;20051;-48
2022/06/07 08:30:53;;;;;;;2.65;1.20;;;22.00;58.90;;;;;;5064637;28;20124;-47
2022/06/07 08:38:57;;;;;;;3.17;1.10;;;21.90;59.60;;;;;;5062312;28;20079;-47
2022/06/07 08:41:28;;;;;;;3.28;1.25;;;21.90;59.70;;;;;;5075486;28;20044;-47
2022/06/07 08:43:56;;;;;;;4.70;1.23;;;21.90;59.80;;;;;;5064107;28;20119;-47
2022/06/07 08:46:25;;;;;;;3.60;1.40;;;21.80;59.90;;;;;;5047770;28;20028;-48
2022/06/07 08:48:51;;;;;;;1.92;1.13;;;21.80;60.10;;;;;;5063792;28;20043;-50
2022/06/07 08:51:33;;;;;;;3.17;1.08;;;21.80;60.30;;;;;;5082187;28;20088;-49
2022/06/07 08:54:00;;;;;;;2.30;1.10;;;21.80;60.30;;;;;;5064106;28;20032;-48
2022/06/07 08:56:30;;;;;;;2.47;1.37;;;21.80;60.40;;;;;;5063984;28;20020;-48
2022/06/07 08:58:59;;;;;;;2.20;1.30;;;21.80;60.50;;;;;;5082234;28;20029;-50
2022/06/07 09:01:36;;;;;;;3.72;1.30;;;21.80;60.60;;;;;;5047985;28;20110;-47
2022/06/07 09:04:25;;;;;;;3.05;1.17;;;21.80;60.50;;;;;;5060524;28;20799;-49
2022/06/07 09:06:55;;;;;;;2.10;1.15;;;21.80;60.60;;;;;;5062123;28;20032;-48
2022/06/07 09:09:22;;;;;;;3.40;1.23;;;21.80;60.50;;;;;;5064210;28;20036;-48
2022/06/07 09:12:14;;;;;;;2.05;0.95;;;21.80;60.60;;;;;;5064110;28;20052;-50
2022/06/07 09:14:47;;;;;;;1.95;1.10;;;21.80;60.60;;;;;;5066927;28;20033;-48
2022/06/07 09:17:19;;;;;;;2.20;1.15;;;21.80;60.60;;;;;;5098341;28;20107;-46
2022/06/07 09:19:46;;;;;;;2.95;1.20;;;21.80;60.60;;;;;;5105965;28;20028;-48
2022/06/07 09:22:25;;;;;;;2.10;0.98;;;21.80;60.60;;;;;;5103782;28;20078;-49
2022/06/07 09:25:07;;;;;;;2.47;1.23;;;21.80;60.70;;;;;;5065348;28;20028;-49
2022/06/07 09:27:33;;;;;;;2.28;1.00;;;21.80;60.70;;;;;;5075851;28;20488;-48
2022/06/07 09:30:20;;;;;;;1.20;0.90;;;21.80;60.70;;;;;;5085276;28;20043;-48
2022/06/07 09:32:49;;;;;;;3.22;1.30;;;21.80;60.80;;;;;;5084082;28;20486;-50
2022/06/07 09:35:21;;;;;;;4.03;1.60;;;21.80;60.70;;;;;;5088366;28;20032;-48
2022/06/07 09:37:56;;;;;;;2.08;1.10;;;21.70;60.70;;;;;;5084560;28;20032;-49
2022/06/07 09:40:27;;;;;;;2.33;1.10;;;21.80;60.70;;;;;;5085338;28;20416;-48
2022/06/07 09:43:12;;;;;;;1.98;1.00;;;21.70;60.60;;;;;;5085316;28;20088;-48
2022/06/07 09:45:38;;;;;;;1.75;1.02;;;21.80;60.60;;;;;;5066641;28;20028;-46
2022/06/07 09:48:40;;;;;;;2.03;1.08;;;21.80;60.60;;;;;;5084580;28;20099;-48
2022/06/07 09:51:16;;;;;;;1.80;1.10;;;21.80;60.60;;;;;;4983233;28;20035;-50
2022/06/07 09:54:04;;;;;;;2.55;1.02;;;21.70;60.60;;;;;;4982981;28;20038;-49
2022/06/07 09:56:48;;;;;;;1.23;0.70;;;21.80;60.60;;;;;;4982516;28;20035;-49
2022/06/07 09:59:16;;;;;;;1.65;1.00;;;21.70;60.70;;;;;;4983173;28;20051;-47
2022/06/07 10:02:19;;;;;;;1.52;0.80;;;21.70;60.70;;;;;;4982753;28;20042;-49
2022/06/07 10:05:08;;;;;;;1.58;1.00;;;21.80;60.90;;;;;;4969496;28;20102;-49
2022/06/07 10:07:37;;;;;;;2.83;0.90;;;21.80;60.90;;;;;;4982534;28;20050;-49
2022/06/07 10:10:08;;;;;;;1.05;0.80;;;21.80;60.90;;;;;;4982994;28;20042;-50
2022/06/07 10:12:41;;;;;;;1.67;1.05;;;21.70;60.80;;;;;;4966698;28;20018;-47
2022/06/07 10:15:31;;;;;;;1.95;1.15;;;21.70;60.80;;;;;;4967086;28;20041;-48
2022/06/07 10:18:27;;;;;;;2.20;0.80;;;21.70;60.80;;;;;;4966687;28;20038;-50
2022/06/07 10:21:11;;;;;;;2.30;1.00;;;21.70;60.80;;;;;;4966426;28;20606;-48
2022/06/07 10:24:04;;;;;;;1.17;0.85;;;21.70;60.80;;;;;;4967906;28;20046;-48
2022/06/07 10:26:42;;;;;;;3.15;1.00;;;21.70;60.80;;;;;;5026111;28;20033;-48
2022/06/07 10:29:40;;;;;;;2.08;1.20;;;21.70;60.70;;;;;;5065109;28;20494;-46
2022/06/07 10:32:15;;;;;;;1.40;1.10;;;21.70;60.70;;;;;;5059663;28;20025;-50
2022/06/07 10:34:44;;;;;;;2.63;1.13;;;21.70;60.80;;;;;;5064247;28;20032;-49
2022/06/07 10:37:50;;;;;;;1.10;0.95;;;21.70;60.80;;;;;;5045718;28;20024;-51
2022/06/07 10:40:57;;;;;;;1.95;1.02;;;21.70;60.80;;;;;;4982412;28;20035;-48
2022/06/07 10:43:50;;;;;;;1.55;1.00;;;21.70;60.80;;;;;;4985924;28;20054;-48
2022/06/07 10:46:17;;;;;;;1.27;1.08;;;21.70;60.90;;;;;;4995197;28;20031;-51
2022/06/07 10:48:47;;;;;;;1.25;0.90;;;21.70;60.90;;;;;;5001565;28;20031;-48
2022/06/07 10:54:40;;;;;;;2.95;1.00;;;21.70;60.90;;;;;;5001644;28;20045;-48
2022/06/07 10:57:25;;;;;;;1.30;1.00;;;21.70;60.90;;;;;;5000675;28;20034;-49
2022/06/07 10:59:51;;;;;;;1.42;1.10;;;21.70;60.90;;;;;;5001326;28;20169;-49
2022/06/07 11:02:24;;;;;;;1.10;0.95;;;21.70;61.40;;;;;;5000954;28;20069;-50
2022/06/07 11:10:54;;;;;;;1.05;0.90;;;21.70;60.90;;;;;;4987397;28;20041;-48
2022/06/07 11:13:33;;;;;;;1.70;1.10;;;21.70;60.90;;;;;;5001142;28;20026;-47
2022/06/07 11:16:30;;;;;;;1.77;1.10;;;21.70;60.90;;;;;;5037187;28;20037;-48
2022/06/07 11:18:56;;;;;;;1.55;0.95;;;21.70;60.90;;;;;;5046844;28;20024;-50
2022/06/07 11:21:31;;;;;;;1.55;1.00;;;21.70;60.90;;;;;;5045008;28;20048;-50
2022/06/07 11:24:06;;;;;;;1.23;0.90;;;21.70;60.90;;;;;;5065472;28;20041;-52
2022/06/07 11:26:47;;;;;;;1.33;0.80;;;21.70;60.90;;;;;;5098713;28;20024;-51
2022/06/07 11:29:17;;;;;;;1.35;1.00;;;21.70;60.90;;;;;;5062896;28;20064;-48
2022/06/07 11:31:44;;;;;;;1.30;1.00;;;21.70;60.90;;;;;;5057658;28;20032;-50
2022/06/07 11:34:22;;;;;;;1.77;1.00;;;21.70;60.90;;;;;;5062958;28;20067;-50
2022/06/07 11:36:48;;;;;;;1.70;0.90;;;21.70;60.90;;;;;;5062078;28;20577;-49
2022/06/07 11:39:30;;;;;;;0.73;0.70;;;21.70;60.90;;;;;;5062431;28;20043;-48
2022/06/07 11:42:20;;;;;;;1.92;1.00;;;21.70;60.90;;;;;;5062718;28;20032;-52
2022/06/07 11:45:24;;;;;;;0.95;0.80;;;21.70;60.90;;;;;;5090530;28;20032;-49
2022/06/07 11:48:11;;;;;;;1.20;1.05;;;21.70;60.90;;;;;;5059661;28;20049;-48
2022/06/07 11:50:47;;;;;;;1.60;1.10;;;21.70;60.90;;;;;;5082754;28;20086;-49
2022/06/07 11:53:33;;;;;;;1.80;0.90;;;21.70;60.90;;;;;;5064616;28;20056;-48
2022/06/07 11:56:34;;;;;;;1.20;1.00;;;21.70;60.90;;;;;;5064388;28;20024;-48
2022/06/07 11:59:01;;;;;;;0.93;0.85;;;21.70;61.10;;;;;;5069576;28;20136;-50
2022/06/07 12:01:37;;;;;;;;;;;21.70;61.20;;;;;;5082276;28;20111;-48
2022/06/07 12:04:40;;;;;;;1.52;1.00;;;21.70;61.20;;;;;;5062229;28;19938;-51
2022/06/07 12:07:32;;;;;;;1.23;1.13;;;21.70;61.20;;;;;;5062344;28;20025;-49
2022/06/07 12:10:01;;;;;;;2.85;1.10;;;21.70;61.30;;;;;;5061899;28;20041;-50
2022/06/07 12:12:31;;;;;;;1.50;1.00;;;21.70;61.40;;;;;;5062065;28;20033;-49
2022/06/07 12:15:14;;;;;;;1.38;1.17;;;21.60;61.20;;;;;;5062268;28;20056;-47
2022/06/07 12:18:10;;;;;;;1.15;0.90;;;21.70;62.10;;;;;;5044537;28;20080;-48
2022/06/07 12:20:38;;;;;;;2.17;1.10;;;21.70;61.20;;;;;;5037001;28;20032;-54
2022/06/07 12:23:26;;;;;;;1.30;0.93;;;21.60;61.10;;;;;;5066343;28;20040;-49
2022/06/07 12:26:15;;;;;;;2.13;1.15;;;21.70;61.20;;;;;;5063943;28;20048;-50
2022/06/07 12:28:48;;;;;;;;;;;21.70;61.10;;;;;;5080077;28;20455;-49
2022/06/07 12:31:15;;;;;;;1.48;1.10;;;21.70;61.20;;;;;;5063957;28;19909;-51
2022/06/07 12:33:51;;;;;;;0.80;0.80;;;21.70;61.10;;;;;;5045017;28;20025;-47
2022/06/07 12:36:23;;;;;;;1.80;1.02;;;21.60;61.10;;;;;;5045348;28;20107;-52
2022/06/07 12:38:49;;;;;;;1.42;1.00;;;21.70;61.20;;;;;;5060044;28;20035;-48
2022/06/07 12:41:18;;;;;;;2.97;1.17;;;21.70;61.30;;;;;;5064053;28;20031;-52
2022/06/07 12:43:46;;;;;;;1.38;1.00;;;21.70;61.30;;;;;;5082152;28;20024;-47
2022/06/07 12:46:23;;;;;;;1.42;1.00;;;21.70;61.40;;;;;;5081957;28;20036;-49
2022/06/07 12:48:50;;;;;;;1.52;1.00;;;21.70;61.40;;;;;;5081641;28;20073;-48
2022/06/07 12:51:30;;;;;;;1.85;0.90;;;21.70;61.40;;;;;;5082327;28;20089;-48
2022/06/07 12:54:22;;;;;;;1.05;0.98;;;21.70;61.40;;;;;;5085851;28;20063;-51
2022/06/07 12:56:49;;;;;;;1.92;1.38;;;21.70;61.40;;;;;;5074205;28;20028;-49
2022/06/07 12:59:22;;;;;;;1.73;1.10;;;21.70;61.30;;;;;;5067927;28;20584;-50
2022/06/07 13:01:49;;;;;;;1.20;1.10;;;21.70;61.30;;;;;;5082253;28;20789;-52
2022/06/07 13:04:37;;;;;;;1.67;1.20;;;21.70;61.20;;;;;;5065663;28;20055;-50
2022/06/07 13:07:12;;;;;;;1.25;0.90;;;21.70;61.20;;;;;;5065541;28;20036;-50
2022/06/07 13:09:39;;;;;;;2.33;1.30;;;21.70;61.20;;;;;;5065207;28;20067;-49
2022/06/07 13:12:05;;;;;;;1.40;1.10;;;21.70;61.20;;;;;;5066747;28;20088;-48
2022/06/07 13:14:31;;;;;;;1.95;1.27;;;21.70;61.10;;;;;;5067434;28;20032;-50
2022/06/07 13:17:04;;;;;;;1.38;1.23;;;21.70;61.20;;;;;;5085367;28;20020;-50
2022/06/07 13:19:30;;;;;;;1.23;1.13;;;21.70;61.20;;;;;;5051168;28;20036;-50
2022/06/07 13:22:15;;;;;;;1.80;1.27;;;21.70;61.20;;;;;;5064493;28;20138;-53
2022/06/07 13:24:43;;;;;;;1.02;0.90;;;21.70;61.30;;;;;;5065343;28;20045;-49
2022/06/07 13:27:31;;;;;;;0.82;0.82;;;21.70;61.30;;;;;;5064946;28;20031;-50
2022/06/07 13:29:59;;;;;;;1.23;1.00;;;21.70;61.40;;;;;;5064971;28;20047;-51
2022/06/07 13:32:27;;;;;;;1.35;0.90;;;21.70;61.30;;;;;;5047297;28;20040;-48